createdAt,value
2023-02-18T00:01:56.502Z,9.05
2023-02-18T00:04:24.753Z,8.65
2023-02-18T00:06:53.364Z,6.47
2023-02-18T00:09:21.482Z,4.90
2023-02-18T00:11:50.024Z,6.85
2023-02-18T00:14:19.025Z,3.97
2023-02-18T00:16:47.310Z,5.65
2023-02-18T00:19:19.846Z,5.13
2023-02-18T00:21:48.723Z,6.65
2023-02-18T00:24:17.331Z,4.80
2023-02-18T00:26:46.315Z,6.40
2023-02-18T00:29:14.920Z,4.90
2023-02-18T00:31:44.190Z,6.03
2023-02-18T00:34:14.489Z,4.97
2023-02-18T00:36:43.391Z,5.50
2023-02-18T00:39:13.511Z,4.97
2023-02-18T00:41:42.880Z,5.47
2023-02-18T00:44:13.052Z,4.82
2023-02-18T00:46:41.798Z,5.55
2023-02-18T00:49:10.740Z,4.18
2023-02-18T00:51:39.240Z,4.25
2023-02-18T00:54:07.620Z,4.18
2023-02-18T00:56:38.080Z,2.90
2023-02-18T00:59:06.640Z,3.43
2023-02-18T01:01:36.064Z,3.53
2023-02-18T01:04:04.606Z,2.92
2023-02-18T01:06:33.799Z,3.47
2023-02-18T01:09:05.649Z,3.47
2023-02-18T01:11:34.177Z,2.80
2023-02-18T01:14:02.373Z,3.20
2023-02-18T01:16:31.154Z,2.72
2023-02-18T01:18:59.788Z,2.83
2023-02-18T01:21:28.916Z,2.38
2023-02-18T01:23:58.622Z,3.15
2023-02-18T01:26:26.791Z,2.42
2023-02-18T01:28:54.943Z,3.00
2023-02-18T01:31:23.275Z,2.58
2023-02-18T01:33:52.483Z,3.13
2023-02-18T01:36:22.216Z,2.53
2023-02-18T01:38:50.704Z,3.28
2023-02-18T01:41:18.820Z,2.45
2023-02-18T01:43:49.785Z,2.93
2023-02-18T01:46:22.413Z,1.83
2023-02-18T01:49:00.952Z,3.25
2023-02-18T01:51:43.867Z,2.78
2023-02-18T01:54:29.884Z,2.50
2023-02-18T01:57:06.298Z,2.75
2023-02-18T02:00:13.760Z,2.45
2023-02-18T02:02:51.841Z,3.35
2023-02-18T02:05:22.172Z,2.60
2023-02-18T02:07:54.619Z,3.55
2023-02-18T02:10:23.152Z,2.70
2023-02-18T02:13:30.017Z,3.65
2023-02-18T02:16:12.998Z,3.30
2023-02-18T02:19:12.704Z,3.88
2023-02-18T02:23:01.634Z,3.40
2023-02-18T02:25:39.489Z,3.53
2023-02-18T02:28:13.172Z,3.65
2023-02-18T02:30:58.693Z,4.32
2023-02-18T02:33:52.644Z,3.65
2023-02-18T02:36:45.335Z,2.95
2023-02-18T02:39:54.231Z,3.08
2023-02-18T02:42:53.159Z,3.25
2023-02-18T02:45:48.372Z,3.25
2023-02-18T02:48:45.895Z,2.40
2023-02-18T02:51:20.073Z,2.75
2023-02-18T02:53:48.776Z,4.03
2023-02-18T02:56:23.972Z,2.83
2023-02-18T02:59:08.110Z,4.28
2023-02-18T03:01:55.844Z,3.50
2023-02-18T03:04:39.629Z,3.17
2023-02-18T03:08:04.663Z,3.15
2023-02-18T03:11:04.792Z,3.35
2023-02-18T03:13:53.056Z,3.75
2023-02-18T03:17:04.783Z,3.40
2023-02-18T03:19:42.817Z,3.40
2023-02-18T03:22:30.498Z,2.67
2023-02-18T03:25:02.925Z,2.92
2023-02-18T03:27:53.927Z,2.95
2023-02-18T03:30:37.137Z,3.17
2023-02-18T03:33:09.924Z,3.55
2023-02-18T03:35:39.625Z,3.28
2023-02-18T03:38:41.069Z,4.00
2023-02-18T03:41:09.527Z,3.13
2023-02-18T03:43:49.126Z,3.33
2023-02-18T03:46:17.406Z,2.83
2023-02-18T03:48:46.110Z,3.30
2023-02-18T03:51:15.790Z,2.53
2023-02-18T03:53:44.276Z,4.15
2023-02-18T03:56:15.801Z,3.00
2023-02-18T03:58:44.285Z,4.00
2023-02-18T04:01:12.626Z,2.47
2023-02-18T04:03:40.931Z,2.67
2023-02-18T04:06:09.877Z,2.47
2023-02-18T04:08:38.282Z,2.47
2023-02-18T04:11:06.569Z,3.40
2023-02-18T04:13:34.729Z,2.90
2023-02-18T04:16:02.748Z,3.05
2023-02-18T04:18:30.707Z,3.47
2023-02-18T04:20:59.296Z,2.72
2023-02-18T04:23:28.135Z,2.55
2023-02-18T04:25:56.166Z,3.78
2023-02-18T04:28:24.283Z,2.50
2023-02-18T04:30:52.227Z,4.05
2023-02-18T04:33:20.609Z,3.05
2023-02-18T04:35:48.645Z,3.63
2023-02-18T04:38:16.877Z,2.88
2023-02-18T04:40:45.907Z,4.00
2023-02-18T04:43:13.930Z,3.03
2023-02-18T04:45:41.881Z,3.90
2023-02-18T04:48:09.877Z,3.55
2023-02-18T04:50:39.194Z,3.25
2023-02-18T04:53:07.114Z,3.72
2023-02-18T04:55:37.535Z,3.25
2023-02-18T04:58:05.781Z,3.30
2023-02-18T05:00:34.010Z,3.13
2023-02-18T05:03:01.985Z,3.03
2023-02-18T05:05:29.942Z,3.13
2023-02-18T05:07:58.073Z,2.42
2023-02-18T05:10:26.119Z,3.20
2023-02-18T05:12:54.137Z,3.78
2023-02-18T05:15:22.037Z,3.17
2023-02-18T05:17:50.117Z,3.78
2023-02-18T05:20:18.189Z,3.72
2023-02-18T05:22:46.857Z,5.05
2023-02-18T05:25:14.909Z,4.00
2023-02-18T05:27:43.432Z,4.32
2023-02-18T05:30:11.896Z,2.70
2023-02-18T05:32:40.068Z,3.38
2023-02-18T05:35:08.794Z,3.42
2023-02-18T05:37:39.388Z,2.88
2023-02-18T05:40:08.217Z,2.72
2023-02-18T05:42:37.401Z,2.67
2023-02-18T05:45:05.969Z,2.88
2023-02-18T05:47:34.068Z,2.60
2023-02-18T05:50:02.503Z,3.65
2023-02-18T05:52:30.547Z,3.42
2023-02-18T05:54:58.526Z,3.00
2023-02-18T05:57:26.553Z,2.92
2023-02-18T05:59:54.816Z,3.08
2023-02-18T06:02:23.175Z,3.00
2023-02-18T06:04:51.309Z,3.80
2023-02-18T06:07:20.778Z,2.63
2023-02-18T06:09:49.169Z,3.67
2023-02-18T06:12:17.649Z,2.70
2023-02-18T06:14:46.303Z,3.55
2023-02-18T06:17:15.604Z,3.22
2023-02-18T06:19:44.958Z,3.92
2023-02-18T06:22:14.198Z,2.88
2023-02-18T06:24:42.519Z,3.72
2023-02-18T06:27:11.302Z,2.80
2023-02-18T06:29:39.762Z,3.17
2023-02-18T06:32:08.487Z,3.50
2023-02-18T06:34:37.421Z,2.70
2023-02-18T06:37:06.375Z,2.80
2023-02-18T06:39:34.844Z,3.42
2023-02-18T06:42:03.629Z,2.60
2023-02-18T06:44:32.123Z,2.75
2023-02-18T06:47:00.873Z,3.85
2023-02-18T06:49:30.641Z,2.90
2023-02-18T06:51:59.187Z,2.70
2023-02-18T06:54:28.204Z,2.97
2023-02-18T06:56:58.843Z,3.00
2023-02-18T06:59:27.385Z,3.72
2023-02-18T07:01:56.030Z,3.88
2023-02-18T07:04:24.078Z,3.55
2023-02-18T07:06:51.991Z,4.13
2023-02-18T07:09:20.608Z,2.60
2023-02-18T07:11:51.850Z,3.53
2023-02-18T07:14:20.199Z,3.47
2023-02-18T07:16:50.869Z,4.35
2023-02-18T07:19:19.065Z,3.58
2023-02-18T07:21:47.528Z,4.43
2023-02-18T07:24:15.765Z,3.05
2023-02-18T07:26:43.999Z,4.35
2023-02-18T07:29:12.125Z,3.40
2023-02-18T07:31:40.629Z,3.72
2023-02-18T07:34:08.923Z,3.47
2023-02-18T07:36:40.136Z,3.13
2023-02-18T07:39:08.695Z,3.28
2023-02-18T07:41:38.658Z,3.50
2023-02-18T07:44:15.500Z,3.60
2023-02-18T07:46:43.924Z,4.60
2023-02-18T07:49:12.293Z,3.95
2023-02-18T07:51:41.124Z,3.55
2023-02-18T07:54:09.398Z,3.55
2023-02-18T07:56:38.572Z,2.63
2023-02-18T07:59:07.507Z,4.40
2023-02-18T08:01:36.088Z,3.70
2023-02-18T08:04:05.278Z,4.30
2023-02-18T08:06:41.065Z,4.00
2023-02-18T08:09:09.278Z,4.35
2023-02-18T08:11:38.870Z,3.47
2023-02-18T08:14:07.530Z,3.28
2023-02-18T08:16:35.958Z,3.13
2023-02-18T08:19:04.419Z,3.35
2023-02-18T08:21:33.037Z,3.60
2023-02-18T08:24:01.835Z,4.30
2023-02-18T08:26:30.244Z,4.43
2023-02-18T08:28:58.343Z,5.18
2023-02-18T08:31:29.877Z,4.22
2023-02-18T08:36:29.506Z,3.70
2023-02-18T08:38:58.577Z,3.97
2023-02-18T08:41:26.808Z,3.35
2023-02-18T08:43:54.852Z,4.80
2023-02-18T08:46:24.995Z,3.92
2023-02-18T08:48:53.889Z,4.07
2023-02-18T08:51:23.610Z,4.93
2023-02-18T08:53:51.687Z,5.43
2023-02-18T08:56:21.147Z,4.15
2023-02-18T08:58:49.273Z,4.82
2023-02-18T09:01:17.706Z,4.10
2023-02-18T09:03:46.121Z,5.15
2023-02-18T09:06:14.145Z,3.22
2023-02-18T09:08:42.256Z,4.78
2023-02-18T09:11:12.163Z,4.05
2023-02-18T09:13:40.953Z,4.63
2023-02-18T09:16:21.261Z,5.00
2023-02-18T09:18:50.319Z,4.35
2023-02-18T09:21:20.889Z,4.63
2023-02-18T09:23:50.241Z,5.22
2023-02-18T09:26:23.234Z,3.92
2023-02-18T09:28:53.133Z,5.18
2023-02-18T09:31:25.210Z,5.60
2023-02-18T09:34:00.740Z,5.85
2023-02-18T09:36:29.756Z,4.30
2023-02-18T09:38:57.998Z,3.38
2023-02-18T09:41:50.326Z,3.85
2023-02-18T09:44:37.885Z,4.03
2023-02-18T09:47:16.969Z,3.47
2023-02-18T09:49:57.674Z,4.93
2023-02-18T09:52:34.018Z,4.10
2023-02-18T09:55:32.286Z,3.90
2023-02-18T09:58:06.100Z,4.68
2023-02-18T10:00:40.762Z,4.45
2023-02-18T10:03:24.504Z,4.65
2023-02-18T10:06:08.870Z,4.70
2023-02-18T10:08:44.984Z,3.75
2023-02-18T10:11:41.621Z,4.07
2023-02-18T10:14:15.318Z,4.10
2023-02-18T10:16:46.529Z,4.70
2023-02-18T10:19:28.724Z,4.05
2023-02-18T10:21:57.827Z,5.07
2023-02-18T10:24:50.870Z,3.78
2023-02-18T10:27:41.187Z,4.32
2023-02-18T10:30:31.526Z,4.32
2023-02-18T10:33:30.361Z,4.15
2023-02-18T10:36:27.091Z,4.05
2023-02-18T10:39:39.942Z,6.03
2023-02-18T10:42:30.550Z,3.47
2023-02-18T10:45:46.932Z,4.63
2023-02-18T10:48:40.046Z,3.92
2023-02-18T10:51:29.875Z,4.45
2023-02-18T10:53:58.631Z,4.82
2023-02-18T10:56:48.387Z,3.97
2023-02-18T10:59:32.691Z,5.18
2023-02-18T11:02:14.234Z,5.20
2023-02-18T11:04:46.404Z,5.90
2023-02-18T11:07:33.210Z,4.93
2023-02-18T11:10:19.552Z,5.55
2023-02-18T11:12:53.173Z,5.72
2023-02-18T11:15:27.648Z,4.95
2023-02-18T11:18:30.414Z,5.47
2023-02-18T11:21:38.747Z,4.35
2023-02-18T11:24:17.013Z,4.40
2023-02-18T11:26:45.245Z,5.18
2023-02-18T11:29:24.311Z,5.57
2023-02-18T11:31:57.301Z,6.88
2023-02-18T11:34:33.256Z,4.53
2023-02-18T11:37:21.151Z,5.10
2023-02-18T11:39:55.532Z,6.45
2023-02-18T11:42:27.175Z,4.75
2023-02-18T11:45:39.902Z,6.20
2023-02-18T11:48:43.438Z,5.53
2023-02-18T11:51:28.841Z,7.32
2023-02-18T11:54:06.750Z,4.57
2023-02-18T11:56:38.478Z,6.13
2023-02-18T11:59:18.392Z,5.00
2023-02-18T12:06:03.150Z,6.15
2023-02-18T12:09:31.903Z,4.65
2023-02-18T12:13:02.868Z,4.13
2023-02-18T12:16:02.082Z,5.05
2023-02-18T12:19:10.679Z,5.95
2023-02-18T12:22:35.948Z,6.45
2023-02-18T12:25:26.577Z,4.90
2023-02-18T12:28:15.811Z,5.40
2023-02-18T12:31:18.666Z,6.55
2023-02-18T12:34:12.952Z,6.97
2023-02-18T12:37:20.522Z,6.18
2023-02-18T12:40:16.635Z,6.57
2023-02-18T12:42:45.046Z,5.80
2023-02-18T12:45:49.912Z,5.15
2023-02-18T12:49:05.323Z,4.57
2023-02-18T12:52:05.194Z,5.18
2023-02-18T12:54:50.783Z,4.70
2023-02-18T12:57:54.028Z,4.80
2023-02-18T13:01:06.697Z,5.30
2023-02-18T13:04:13.416Z,4.47
2023-02-18T13:07:35.687Z,5.05
2023-02-18T13:10:56.354Z,5.78
2023-02-18T13:13:40.146Z,3.72
2023-02-18T13:16:16.326Z,4.22
2023-02-18T13:19:18.738Z,6.35
2023-02-18T13:21:52.086Z,6.53
2023-02-18T13:24:43.776Z,5.40
2023-02-18T13:27:22.670Z,5.90
2023-02-18T13:30:37.855Z,6.55
2023-02-18T13:33:53.422Z,6.20
2023-02-18T13:37:05.974Z,4.65
2023-02-18T13:39:35.714Z,5.30
2023-02-18T13:42:37.006Z,4.50
2023-02-18T13:45:23.535Z,5.00
2023-02-18T13:47:52.741Z,6.18
2023-02-18T13:50:30.062Z,4.43
2023-02-18T13:53:10.107Z,4.30
2023-02-18T13:56:09.646Z,7.97
2023-02-18T13:58:55.570Z,4.03
2023-02-18T14:01:45.420Z,4.63
2023-02-18T14:04:45.577Z,5.25
2023-02-18T14:07:25.551Z,4.85
2023-02-18T14:10:00.005Z,5.85
2023-02-18T14:12:42.365Z,5.30
2023-02-18T14:15:30.943Z,5.10
2023-02-18T14:18:14.125Z,4.38
2023-02-18T14:20:51.588Z,5.57
2023-02-18T14:23:19.571Z,4.13
2023-02-18T14:26:16.504Z,6.13
2023-02-18T14:28:49.167Z,6.13
2023-02-18T14:31:52.049Z,4.93
2023-02-18T14:35:06.765Z,4.47
2023-02-18T14:37:55.810Z,4.00
2023-02-18T14:41:01.651Z,4.13
2023-02-18T14:43:53.062Z,4.60
2023-02-18T14:46:33.709Z,4.55
2023-02-18T14:49:39.460Z,4.05
2023-02-18T14:52:36.949Z,4.60
2023-02-18T14:55:08.719Z,3.83
2023-02-18T15:00:40.877Z,5.28
2023-02-18T15:03:23.040Z,5.05
2023-02-18T15:05:52.585Z,6.47
2023-02-18T15:08:26.196Z,5.07
2023-02-18T15:11:07.135Z,5.63
2023-02-18T15:13:44.527Z,3.83
2023-02-18T15:16:34.107Z,3.58
2023-02-18T15:19:19.301Z,3.83
2023-02-18T15:21:52.204Z,5.65
2023-02-18T15:24:37.458Z,4.50
2023-02-18T15:27:22.157Z,5.20
2023-02-18T15:29:57.000Z,6.07
2023-02-18T15:32:29.676Z,4.97
2023-02-18T15:35:05.243Z,3.90
2023-02-18T15:37:34.005Z,3.75
2023-02-18T15:40:02.302Z,5.22
2023-02-18T15:42:33.529Z,4.43
2023-02-18T15:45:35.713Z,4.68
2023-02-18T15:50:38.256Z,4.80
2023-02-18T15:53:15.022Z,5.47
2023-02-18T15:55:48.694Z,6.15
2023-02-18T15:58:33.321Z,4.53
2023-02-18T16:01:08.671Z,4.35
2023-02-18T16:03:40.047Z,3.95
2023-02-18T16:06:18.213Z,4.60
2023-02-18T16:09:07.039Z,4.80
2023-02-18T16:12:02.531Z,4.05
2023-02-18T16:14:55.054Z,4.40
2023-02-18T16:17:27.011Z,3.58
2023-02-18T16:20:19.170Z,5.32
2023-02-18T16:22:53.804Z,5.30
2023-02-18T16:25:26.922Z,5.32
2023-02-18T16:27:59.807Z,6.05
2023-02-18T16:30:31.483Z,4.20
2023-02-18T16:33:01.091Z,4.10
2023-02-18T16:35:43.989Z,3.53
2023-02-18T16:38:24.692Z,3.55
2023-02-18T16:40:55.089Z,4.65
2023-02-18T16:43:29.439Z,3.78
2023-02-18T16:46:06.730Z,3.42
2023-02-18T16:48:41.385Z,2.90
2023-02-18T16:51:22.545Z,3.38
2023-02-18T16:53:51.904Z,5.82
2023-02-18T16:56:24.957Z,5.15
2023-02-18T16:58:53.636Z,7.32
2023-02-18T17:01:27.684Z,5.22
2023-02-18T17:04:00.877Z,5.10
2023-02-18T17:06:30.458Z,8.93
2023-02-18T17:08:59.621Z,6.70
2023-02-18T17:11:35.861Z,6.93
2023-02-18T17:14:06.330Z,5.82
2023-02-18T17:16:35.122Z,6.38
2023-02-18T17:19:03.931Z,6.55
2023-02-18T17:21:32.453Z,6.85
2023-02-18T17:24:00.670Z,6.03
2023-02-18T17:26:30.832Z,6.47
2023-02-18T17:29:00.959Z,5.45
2023-02-18T17:31:34.700Z,5.45
2023-02-18T17:34:08.148Z,4.57
2023-02-18T17:36:45.870Z,3.97
2023-02-18T17:39:17.744Z,4.72
2023-02-18T17:41:47.691Z,5.45
2023-02-18T17:44:25.204Z,3.80
2023-02-18T17:46:55.173Z,5.85
2023-02-18T17:49:24.153Z,4.75
2023-02-18T17:51:52.860Z,5.82
2023-02-18T17:54:23.342Z,4.43
2023-02-18T17:56:51.884Z,6.00
2023-02-18T17:59:21.040Z,4.70
2023-02-18T18:01:49.345Z,7.57
2023-02-18T18:04:19.595Z,3.78
2023-02-18T18:06:49.901Z,6.38
2023-02-18T18:09:18.389Z,5.00
2023-02-18T18:11:46.846Z,5.65
2023-02-18T18:14:15.584Z,4.40
2023-02-18T18:16:45.149Z,5.88
2023-02-18T18:19:13.313Z,5.18
2023-02-18T18:21:41.697Z,5.47
2023-02-18T18:24:13.187Z,6.88
2023-02-18T18:26:41.311Z,5.75
2023-02-18T18:29:09.490Z,5.28
2023-02-18T18:31:38.111Z,6.13
2023-02-18T18:34:06.199Z,5.03
2023-02-18T18:36:34.162Z,5.03
2023-02-18T18:39:02.997Z,4.45
2023-02-18T18:41:31.317Z,5.70
2023-02-18T18:43:59.510Z,5.20
2023-02-18T18:46:29.544Z,4.90
2023-02-18T18:48:57.670Z,4.95
2023-02-18T18:51:31.455Z,4.30
2023-02-18T18:53:59.847Z,4.85
2023-02-18T18:56:28.189Z,5.00
2023-02-18T18:58:57.159Z,6.40
2023-02-18T19:01:27.655Z,4.70
2023-02-18T19:03:55.851Z,5.60
2023-02-18T19:06:24.277Z,6.47
2023-02-18T19:08:52.543Z,8.07
2023-02-18T19:11:20.810Z,6.38
2023-02-18T19:13:49.635Z,7.38
2023-02-18T19:16:39.720Z,6.18
2023-02-18T19:19:10.969Z,5.40
2023-02-18T19:21:40.402Z,6.05
2023-02-18T19:24:09.669Z,6.35
2023-02-18T19:26:37.903Z,5.10
2023-02-18T19:29:08.810Z,6.78
2023-02-18T19:31:37.675Z,7.30
2023-02-18T19:34:05.855Z,7.97
2023-02-18T19:36:33.886Z,6.22
2023-02-18T19:39:02.478Z,4.82
2023-02-18T19:41:31.351Z,4.82
2023-02-18T19:43:59.463Z,5.00
2023-02-18T19:46:31.979Z,4.97
2023-02-18T19:48:59.998Z,5.57
2023-02-18T19:51:28.226Z,5.18
2023-02-18T19:53:56.345Z,6.05
2023-02-18T19:56:25.205Z,5.80
2023-02-18T19:58:56.663Z,6.85
2023-02-18T20:01:25.401Z,5.50
2023-02-18T20:03:53.927Z,6.22
2023-02-18T20:06:22.592Z,4.90
2023-02-18T20:08:51.707Z,17.33
2023-02-18T20:11:21.908Z,15.18
2023-02-18T20:13:50.148Z,10.43
2023-02-18T20:16:18.745Z,10.38
2023-02-18T20:18:46.936Z,10.75
2023-02-18T20:21:15.113Z,13.57
2023-02-18T20:23:43.474Z,9.45
2023-02-18T20:26:14.884Z,11.98
2023-02-18T20:28:43.128Z,17.70
2023-02-18T20:31:13.551Z,24.80
2023-02-18T20:33:42.875Z,14.35
2023-02-18T20:36:14.645Z,12.18
2023-02-18T20:41:14.947Z,12.30
2023-02-18T20:43:43.685Z,16.52
2023-02-18T20:46:19.504Z,36.65
2023-02-18T20:48:48.494Z,11.85
2023-02-18T20:51:21.515Z,19.80
2023-02-18T20:53:50.632Z,31.42
2023-02-18T20:56:21.054Z,10.38
2023-02-18T20:59:00.038Z,19.25
2023-02-18T21:01:29.027Z,35.20
2023-02-18T21:03:57.432Z,20.17
2023-02-18T21:06:26.664Z,16.65
2023-02-18T21:08:55.178Z,65.20
2023-02-18T21:11:26.941Z,29.13
2023-02-18T21:13:57.466Z,36.33
2023-02-18T21:16:28.517Z,11.50
2023-02-18T21:18:57.294Z,25.65
2023-02-18T21:21:26.160Z,31.25
2023-02-18T21:23:54.498Z,21.90
2023-02-18T21:26:25.959Z,18.50
2023-02-18T21:28:58.610Z,11.40
2023-02-18T21:31:31.760Z,8.32
2023-02-18T21:34:01.198Z,13.68
2023-02-18T21:36:31.238Z,12.25
2023-02-18T21:39:07.228Z,10.40
2023-02-18T21:41:39.855Z,9.15
2023-02-18T21:44:10.060Z,8.02
2023-02-18T21:46:39.945Z,8.25
2023-02-18T21:49:12.954Z,7.13
2023-02-18T21:51:57.421Z,10.25
2023-02-18T21:54:48.033Z,9.98
2023-02-18T21:57:24.301Z,11.95
2023-02-18T21:59:53.610Z,10.15
2023-02-18T22:02:32.179Z,9.85
2023-02-18T22:05:09.052Z,9.95
2023-02-18T22:07:38.365Z,7.68
2023-02-18T22:10:08.089Z,7.65
2023-02-18T22:12:37.219Z,8.38
2023-02-18T22:15:06.132Z,8.73
2023-02-18T22:17:35.659Z,6.85
2023-02-18T22:20:10.092Z,8.98
2023-02-18T22:22:39.181Z,8.10
2023-02-18T22:25:08.947Z,7.63
2023-02-18T22:27:38.120Z,7.90
2023-02-18T22:30:07.437Z,6.75
2023-02-18T22:32:36.064Z,7.18
2023-02-18T22:35:05.649Z,5.95
2023-02-18T22:37:35.929Z,7.10
2023-02-18T22:40:04.751Z,6.53
2023-02-18T22:42:33.280Z,6.78
2023-02-18T22:45:03.013Z,7.60
2023-02-18T22:47:31.779Z,7.03
2023-02-18T22:50:00.462Z,7.28
2023-02-18T22:52:29.038Z,6.43
2023-02-18T22:54:57.834Z,6.60
2023-02-18T22:57:26.719Z,6.47
2023-02-18T22:59:55.357Z,7.18
2023-02-18T23:02:25.532Z,6.40
2023-02-18T23:04:54.090Z,7.55
2023-02-18T23:07:24.924Z,7.90
2023-02-18T23:09:53.787Z,9.30
2023-02-18T23:12:23.517Z,8.40
2023-02-18T23:14:53.107Z,8.15
2023-02-18T23:17:21.922Z,7.25
2023-02-18T23:19:54.687Z,9.52
2023-02-18T23:22:34.144Z,6.53
2023-02-18T23:25:03.117Z,7.32
2023-02-18T23:27:32.801Z,7.45
2023-02-18T23:30:01.467Z,6.55
2023-02-18T23:32:30.862Z,7.75
2023-02-18T23:35:00.199Z,6.95
2023-02-18T23:37:47.590Z,6.32
2023-02-18T23:40:16.852Z,7.32
2023-02-18T23:42:44.831Z,7.95
2023-02-18T23:45:13.125Z,7.25
2023-02-18T23:47:41.313Z,8.65
2023-02-18T23:50:09.549Z,7.93
2023-02-18T23:56:40.622Z,5.65
2023-02-18T23:59:10.371Z,7.22
